Impacts TAF Board
For situational awareness. Not to be used for flight planning purposes.
IDs:

KAUS - Austin/Bergstrom Int, TX, US

Issued at 1120 UTC 16 Aug 2022
Updated at 1224 UTC 16 Aug 2022
Potential Impact None Slight Moderate High
Time1213Z 16/13Z 16/14Z 16/15Z 16/16Z 16/17Z 16/18Z 16/19Z 16/20Z 16/21Z 16/22Z 16/23Z 17/00Z 17/01Z>>
Type OBS PRVL PRVL PRVL PRVL PRVL PRVL PRVL PRVL PRVL PRVL PRVL PRVL PRVL
VIS 10 >6 >6 >6 >6 >6 >6 >6 >6 >6 >6 >6 >6 >6
CIG 10 -- -- -- -- -- -- -- -- -- -- -- -- --
Cover BKN FEW FEW FEW SCT SCT SCT SCT SCT SCT SCT SCT SCT SCT
FltCat MVFR VFR VFR VFR VFR VFR VFR VFR VFR VFR VFR VFR VFR VFR
WX -- -- -- -- -- -- -- -- -- -- -- -- -- --
WDir VRB VRB VRB VRB 170 170 170 170 170 170 170 170 170 170
WSpd 0 2 2 2 9 9 9 9 9 9 9 9 9 9
WGst -- -- -- -- -- -- -- -- -- -- -- -- -- --
WSHgt -- -- -- -- -- -- -- -- -- -- -- -- -- --
WSDir -- -- -- -- -- -- -- -- -- -- -- -- -- --
WSSpd -- -- -- -- -- -- -- -- -- -- -- -- -- --
R18/36
XWnd VRB VRB VRB VRB 1 1 1 1 1 1 1 1 1 1
HWnd VRB VRB VRB VRB 9 9 9 9 9 9 9 9 9 9
Raw TAF
KAUS 161120Z 1612/1718 VRB02KT P6SM FEW011 FEW030 FEW250
  FM161600 17009KT P6SM SCT050
  FM170800 19003KT P6SM SCT020
  FM171500 20007KT P6SM SCT050


Raw METAR
KAUS 161213Z 00000KT 10SM SCT004 BKN010 23/22 A2996 RMK AO2 T02280222
KAUS 161153Z 00000KT 10SM SCT012 SCT250 23/22 A2995 RMK AO2 SLP130 T02280222 10272 20217 53008
KAUS 161053Z 24003KT 10SM FEW011 FEW250 23/22 A2993 RMK AO2 SLP124 T02280222
KAUS 160953Z 21003KT 10SM FEW011 FEW250 24/23 A2992 RMK AO2 SLP120 T02390228

METAR Board
Radar Display
Forecast Discussion
For situational awareness. Not to be used for flight planning purposes.